Terminal Aerodrome Forecast
Issued by NWS

Home | Current Version | Previous Version | Text Only | Print | Product List | Glossary On
Versions: 1 2 3 4 5 6 7 8 9 10 11 12 13 14 15
000
FTUS41 KPBZ 071733
TAFLBE
TAF
KLBE 071733Z 0718/0818 22012G22KT P6SM BKN040
     FM080200 23008KT 4SM TSRA OVC030CB
      TEMPO 0803/0805 2SM TSRA OVC020CB
     FM080600 24007KT 3SM -SHRA BR OVC008
     FM081600 30005KT 6SM BR OVC012=

USA.gov is the U.S. government's official web portal to all federal, state and local government web resources and services.